createdAt,value
2022-12-31T00:01:22.502Z,7.80
2022-12-31T00:03:49.779Z,7.80
2022-12-31T00:06:29.089Z,7.70
2022-12-31T00:08:57.656Z,7.80
2022-12-31T00:12:45.168Z,7.90
2022-12-31T00:15:14.713Z,7.90
2022-12-31T00:17:41.489Z,7.90
2022-12-31T00:20:08.671Z,8.00
2022-12-31T00:22:35.442Z,7.90
2022-12-31T00:25:02.994Z,7.90
2022-12-31T00:27:33.290Z,7.90
2022-12-31T00:30:04.488Z,8.00
2022-12-31T00:32:33.198Z,8.00
2022-12-31T00:35:00.097Z,8.00
2022-12-31T00:37:27.758Z,8.10
2022-12-31T00:39:54.613Z,8.10
2022-12-31T00:42:21.458Z,8.10
2022-12-31T00:44:48.206Z,8.00
2022-12-31T00:47:15.517Z,8.10
2022-12-31T00:49:42.445Z,8.10
2022-12-31T00:52:09.855Z,8.10
2022-12-31T00:54:39.079Z,8.10
2022-12-31T00:57:05.783Z,8.10
2022-12-31T00:59:32.734Z,8.10
2022-12-31T01:02:00.361Z,8.20
2022-12-31T01:04:28.275Z,8.20
2022-12-31T01:07:09.182Z,8.20
2022-12-31T01:09:35.972Z,8.20
2022-12-31T01:12:03.441Z,8.20
2022-12-31T01:14:32.700Z,8.30
2022-12-31T01:16:59.572Z,8.40
2022-12-31T01:19:29.942Z,8.40
2022-12-31T01:21:57.539Z,8.40
2022-12-31T01:24:24.766Z,8.40
2022-12-31T01:27:14.993Z,8.40
2022-12-31T01:29:42.076Z,8.40
2022-12-31T01:32:08.781Z,8.40
2022-12-31T01:34:35.655Z,8.40
2022-12-31T01:37:02.339Z,8.40
2022-12-31T01:39:29.177Z,8.50
2022-12-31T01:41:58.395Z,8.40
2022-12-31T01:44:25.153Z,8.50
2022-12-31T01:46:56.317Z,8.50
2022-12-31T01:49:51.481Z,8.60
2022-12-31T01:52:27.774Z,8.60
2022-12-31T01:55:14.740Z,8.60
2022-12-31T01:57:43.100Z,8.60
2022-12-31T02:00:11.621Z,8.60
2022-12-31T02:02:38.520Z,8.70
2022-12-31T02:05:16.756Z,8.70
2022-12-31T02:07:44.453Z,8.70
2022-12-31T02:10:11.317Z,8.80
2022-12-31T02:12:38.493Z,8.80
2022-12-31T02:15:06.094Z,8.90
2022-12-31T02:17:50.537Z,8.80
2022-12-31T02:20:39.504Z,8.90
2022-12-31T02:23:17.285Z,8.90
2022-12-31T02:26:13.267Z,8.90
2022-12-31T02:28:57.940Z,8.90
2022-12-31T02:31:47.759Z,9.00
2022-12-31T02:34:26.177Z,8.90
2022-12-31T02:36:56.978Z,9.00
2022-12-31T02:39:24.325Z,9.10
2022-12-31T02:41:52.148Z,9.10
2022-12-31T02:44:26.079Z,9.10
2022-12-31T02:46:58.676Z,9.10
2022-12-31T02:49:45.535Z,9.20
2022-12-31T02:52:38.801Z,9.20
2022-12-31T02:55:41.226Z,9.20
2022-12-31T02:58:50.080Z,9.20
2022-12-31T03:01:45.285Z,9.30
2022-12-31T03:04:32.147Z,9.50
2022-12-31T03:07:29.580Z,9.50
2022-12-31T03:09:59.608Z,9.60
2022-12-31T03:12:47.848Z,9.60
2022-12-31T03:15:29.966Z,9.70
2022-12-31T03:18:07.017Z,9.80
2022-12-31T03:21:04.434Z,9.70
2022-12-31T03:23:36.117Z,9.70
2022-12-31T03:26:09.590Z,9.80
2022-12-31T03:28:36.947Z,9.80
2022-12-31T03:31:04.825Z,9.70
2022-12-31T03:33:33.919Z,9.80
2022-12-31T03:36:04.367Z,9.70
2022-12-31T03:38:31.118Z,9.90
2022-12-31T03:41:02.909Z,9.80
2022-12-31T03:43:29.750Z,9.80
2022-12-31T03:45:59.644Z,9.80
2022-12-31T03:48:26.565Z,9.70
2022-12-31T03:50:55.787Z,9.80
2022-12-31T03:53:25.607Z,9.80
2022-12-31T03:55:53.670Z,9.80
2022-12-31T03:58:21.484Z,9.90
2022-12-31T04:00:48.410Z,10.00
2022-12-31T04:03:15.522Z,9.90
2022-12-31T04:05:44.990Z,10.00
2022-12-31T04:08:14.164Z,10.10
2022-12-31T04:10:40.869Z,10.00
2022-12-31T04:13:07.949Z,9.90
2022-12-31T04:15:34.769Z,9.80
2022-12-31T04:18:04.085Z,9.90
2022-12-31T04:20:34.891Z,9.80
2022-12-31T04:23:02.161Z,9.80
2022-12-31T04:25:28.904Z,9.80
2022-12-31T04:27:55.953Z,9.80
2022-12-31T04:30:22.713Z,9.70
2022-12-31T04:32:49.566Z,9.70
2022-12-31T04:35:16.406Z,9.80
2022-12-31T04:37:43.166Z,9.70
2022-12-31T04:40:10.404Z,9.80
2022-12-31T04:42:42.735Z,9.80
2022-12-31T04:45:12.403Z,9.80
2022-12-31T04:47:39.151Z,9.80
2022-12-31T04:50:06.445Z,9.90
2022-12-31T04:52:38.604Z,9.90
2022-12-31T04:55:10.374Z,9.90
2022-12-31T04:57:37.251Z,9.90
2022-12-31T05:00:06.922Z,10.00
2022-12-31T05:02:33.892Z,9.90
2022-12-31T05:05:01.052Z,9.90
2022-12-31T05:07:30.317Z,9.90
2022-12-31T05:09:57.839Z,9.80
2022-12-31T05:12:24.765Z,9.90
2022-12-31T05:14:54.087Z,9.90
2022-12-31T05:17:21.542Z,9.90
2022-12-31T05:19:48.414Z,10.00
2022-12-31T05:22:31.208Z,10.00
2022-12-31T05:24:59.211Z,9.90
2022-12-31T05:27:27.899Z,10.10
2022-12-31T05:29:54.819Z,10.10
2022-12-31T05:32:21.798Z,10.20
2022-12-31T05:34:53.532Z,10.20
2022-12-31T05:37:20.481Z,10.20
2022-12-31T05:39:47.254Z,10.30
2022-12-31T05:42:15.902Z,10.30
2022-12-31T05:44:42.737Z,10.30
2022-12-31T05:47:09.813Z,10.20
2022-12-31T05:49:36.647Z,10.20
2022-12-31T05:52:06.683Z,10.20
2022-12-31T05:54:33.711Z,10.20
2022-12-31T05:57:00.905Z,10.20
2022-12-31T05:59:31.020Z,10.20
2022-12-31T06:01:58.140Z,10.10
2022-12-31T06:04:25.303Z,10.20
2022-12-31T06:06:52.762Z,10.30
2022-12-31T06:09:19.878Z,10.30
2022-12-31T06:11:52.074Z,10.40
2022-12-31T06:14:19.252Z,10.40
2022-12-31T06:16:48.546Z,10.40
2022-12-31T06:19:16.096Z,10.50
2022-12-31T06:21:45.536Z,10.50
2022-12-31T06:24:12.329Z,10.60
2022-12-31T06:26:39.204Z,10.50
2022-12-31T06:29:08.823Z,10.60
2022-12-31T06:31:36.013Z,10.50
2022-12-31T06:34:03.491Z,10.50
2022-12-31T06:36:32.507Z,10.60
2022-12-31T06:38:59.500Z,10.60
2022-12-31T06:41:32.377Z,10.50
2022-12-31T06:43:59.145Z,10.60
2022-12-31T06:46:26.067Z,10.70
2022-12-31T06:48:55.243Z,10.70
2022-12-31T06:51:24.230Z,10.70
2022-12-31T06:53:51.935Z,10.70
2022-12-31T06:56:25.281Z,10.60
2022-12-31T06:58:56.167Z,10.70
2022-12-31T07:01:32.068Z,10.70
2022-12-31T07:04:38.142Z,10.60
2022-12-31T07:07:34.957Z,10.70
2022-12-31T07:10:29.748Z,10.70
2022-12-31T07:13:39.446Z,10.80
2022-12-31T07:16:09.299Z,10.70
2022-12-31T07:18:43.784Z,10.80
2022-12-31T07:21:16.726Z,10.90
2022-12-31T07:23:43.844Z,10.70
2022-12-31T07:26:27.749Z,10.80
2022-12-31T07:29:16.033Z,10.70
2022-12-31T07:32:03.011Z,10.70
2022-12-31T07:35:01.278Z,10.70
2022-12-31T07:37:38.126Z,10.70
2022-12-31T07:40:17.516Z,10.80
2022-12-31T07:43:23.784Z,10.80
2022-12-31T07:46:01.298Z,10.90
2022-12-31T07:48:29.322Z,10.90
2022-12-31T07:50:57.723Z,10.90
2022-12-31T07:53:25.178Z,11.00
2022-12-31T07:56:02.790Z,11.10
2022-12-31T07:58:31.931Z,11.00
2022-12-31T08:01:00.208Z,11.10
2022-12-31T08:03:59.132Z,11.00
2022-12-31T08:07:02.536Z,11.10
2022-12-31T08:09:39.466Z,11.10
2022-12-31T08:12:07.925Z,11.10
2022-12-31T08:14:43.575Z,11.20
2022-12-31T08:17:16.327Z,11.30
2022-12-31T08:19:43.958Z,11.20
2022-12-31T08:22:26.103Z,11.20
2022-12-31T08:25:22.765Z,11.30
2022-12-31T08:28:12.036Z,11.20
2022-12-31T08:31:05.365Z,11.20
2022-12-31T08:33:37.714Z,11.30
2022-12-31T08:36:16.476Z,11.30
2022-12-31T08:38:46.469Z,11.30
2022-12-31T08:41:31.129Z,11.30
2022-12-31T08:44:02.330Z,11.30
2022-12-31T08:46:47.773Z,11.30
2022-12-31T08:49:14.997Z,11.40
2022-12-31T08:51:42.160Z,11.40
2022-12-31T08:54:12.056Z,11.40
2022-12-31T08:57:03.035Z,11.30
2022-12-31T08:59:48.994Z,11.40
2022-12-31T09:02:53.632Z,11.30
2022-12-31T09:05:32.650Z,11.30
2022-12-31T09:08:31.240Z,11.30
2022-12-31T09:11:22.613Z,11.30
2022-12-31T09:13:55.978Z,11.50
2022-12-31T09:16:27.413Z,11.40
2022-12-31T09:18:54.540Z,11.50
2022-12-31T09:21:23.449Z,11.50
2022-12-31T09:23:50.557Z,11.50
2022-12-31T09:26:29.308Z,11.40
2022-12-31T09:29:34.933Z,11.50
2022-12-31T09:32:14.128Z,11.50
2022-12-31T09:34:55.361Z,11.40
2022-12-31T09:37:44.172Z,11.40
2022-12-31T09:40:23.293Z,11.40
2022-12-31T09:43:01.940Z,11.50
2022-12-31T09:45:55.479Z,11.50
2022-12-31T09:48:50.015Z,11.50
2022-12-31T09:51:31.004Z,11.50
2022-12-31T09:54:06.883Z,11.60
2022-12-31T09:56:59.194Z,11.70
2022-12-31T09:59:58.543Z,11.70
2022-12-31T10:02:50.957Z,11.60
2022-12-31T10:05:27.115Z,11.60
2022-12-31T10:08:22.721Z,11.50
2022-12-31T10:10:56.087Z,11.70
2022-12-31T10:13:56.183Z,11.80
2022-12-31T10:16:37.017Z,11.90
2022-12-31T10:19:12.510Z,12.00
2022-12-31T10:22:10.973Z,12.10
2022-12-31T10:24:43.783Z,12.30
2022-12-31T10:27:14.301Z,12.30
2022-12-31T10:29:48.690Z,12.30
2022-12-31T10:32:58.134Z,12.30
2022-12-31T10:35:47.472Z,12.30
2022-12-31T10:38:21.252Z,12.50
2022-12-31T10:41:07.161Z,12.50
2022-12-31T10:44:16.106Z,12.50
2022-12-31T10:46:58.932Z,12.40
2022-12-31T10:50:00.991Z,12.30
2022-12-31T10:52:58.683Z,12.30
2022-12-31T10:55:37.507Z,12.20
2022-12-31T10:58:34.937Z,12.20
2022-12-31T11:01:30.967Z,12.20
2022-12-31T11:04:19.089Z,12.30
2022-12-31T11:06:59.201Z,12.30
2022-12-31T11:10:03.480Z,12.30
2022-12-31T11:12:39.382Z,12.40
2022-12-31T11:15:21.933Z,12.30
2022-12-31T11:18:10.286Z,12.30
2022-12-31T11:21:07.238Z,12.30
2022-12-31T11:23:49.490Z,12.20
2022-12-31T11:26:40.194Z,12.20
2022-12-31T11:29:28.348Z,12.20
2022-12-31T11:32:12.599Z,12.30
2022-12-31T11:34:48.127Z,12.20
2022-12-31T11:37:40.219Z,12.30
2022-12-31T11:40:27.967Z,12.30
2022-12-31T11:43:21.280Z,12.30
2022-12-31T11:46:18.917Z,12.40
2022-12-31T11:49:27.395Z,12.30
2022-12-31T11:52:06.143Z,12.40
2022-12-31T11:55:17.044Z,12.30
2022-12-31T11:57:50.037Z,12.30
2022-12-31T12:00:18.976Z,12.40
2022-12-31T12:03:04.350Z,12.30
2022-12-31T12:05:33.722Z,12.30
2022-12-31T12:08:02.207Z,12.30
2022-12-31T12:10:37.182Z,12.40
2022-12-31T12:13:30.612Z,12.40
2022-12-31T12:16:00.168Z,12.50
2022-12-31T12:18:34.791Z,12.50
2022-12-31T12:21:13.799Z,12.50
2022-12-31T12:23:42.727Z,12.60
2022-12-31T12:26:30.949Z,12.60
2022-12-31T12:29:08.017Z,12.60
2022-12-31T12:31:36.224Z,12.60
2022-12-31T12:34:04.101Z,12.60
2022-12-31T12:36:33.313Z,12.70
2022-12-31T12:39:01.974Z,12.60
2022-12-31T12:41:32.078Z,12.70
2022-12-31T12:44:05.654Z,12.70
2022-12-31T12:46:35.986Z,12.70
2022-12-31T12:49:04.103Z,12.80
2022-12-31T12:52:14.339Z,12.80
2022-12-31T12:54:56.225Z,13.00
2022-12-31T12:57:39.810Z,13.00
2022-12-31T13:00:19.195Z,13.00
2022-12-31T13:03:17.001Z,13.20
2022-12-31T13:06:34.349Z,13.20
2022-12-31T13:09:33.265Z,13.20
2022-12-31T13:12:08.829Z,13.20
2022-12-31T13:14:52.010Z,13.20
2022-12-31T13:17:21.846Z,13.20
2022-12-31T13:19:57.720Z,13.40
2022-12-31T13:22:56.295Z,13.30
2022-12-31T13:25:48.436Z,13.30
2022-12-31T13:28:18.161Z,13.30
2022-12-31T13:30:52.349Z,13.20
2022-12-31T13:33:37.372Z,13.20
2022-12-31T13:36:09.137Z,13.20
2022-12-31T13:38:43.390Z,13.10
2022-12-31T13:41:43.514Z,13.00
2022-12-31T13:44:36.207Z,13.00
2022-12-31T13:47:13.159Z,13.00
2022-12-31T13:49:39.862Z,12.90
2022-12-31T13:52:32.946Z,12.80
2022-12-31T13:55:23.779Z,12.80
2022-12-31T13:58:15.100Z,12.70
2022-12-31T14:00:49.273Z,12.70
2022-12-31T14:04:02.261Z,12.60
2022-12-31T14:06:36.547Z,12.70
2022-12-31T14:09:06.773Z,12.50
2022-12-31T14:11:36.429Z,12.50
2022-12-31T14:14:06.333Z,12.40
2022-12-31T14:16:55.398Z,12.50
2022-12-31T14:19:32.326Z,12.40
2022-12-31T14:22:13.024Z,12.40
2022-12-31T14:24:50.556Z,12.40
2022-12-31T14:27:29.238Z,12.40
2022-12-31T14:30:13.339Z,12.30
2022-12-31T14:32:59.110Z,12.10
2022-12-31T14:35:28.728Z,12.10
2022-12-31T14:38:32.593Z,12.10
2022-12-31T14:41:29.887Z,12.10
2022-12-31T14:44:02.468Z,12.00
2022-12-31T14:46:59.921Z,12.10
2022-12-31T14:49:49.040Z,12.00
2022-12-31T14:52:17.521Z,11.90
2022-12-31T14:54:44.450Z,11.80
2022-12-31T14:57:25.547Z,11.70
2022-12-31T15:00:23.317Z,11.80
2022-12-31T15:02:53.646Z,11.80
2022-12-31T15:05:23.447Z,11.70
2022-12-31T15:08:31.994Z,11.70
2022-12-31T15:10:58.975Z,11.70
2022-12-31T15:13:31.985Z,11.70
2022-12-31T15:16:07.352Z,11.60
2022-12-31T15:18:46.316Z,11.50
2022-12-31T15:21:39.477Z,11.50
2022-12-31T15:24:24.340Z,11.50
2022-12-31T15:27:03.686Z,11.60
2022-12-31T15:29:43.582Z,11.60
2022-12-31T15:32:23.198Z,11.50
2022-12-31T15:35:20.844Z,11.50
2022-12-31T15:38:08.803Z,11.50
2022-12-31T15:40:45.741Z,11.50
2022-12-31T15:43:26.548Z,11.50
2022-12-31T15:45:56.808Z,11.50
2022-12-31T15:48:37.199Z,11.50
2022-12-31T15:51:08.432Z,11.40
2022-12-31T15:53:41.271Z,11.40
2022-12-31T15:56:19.271Z,11.30
2022-12-31T15:58:49.850Z,11.20
2022-12-31T16:01:36.380Z,11.20
2022-12-31T16:04:07.875Z,11.10
2022-12-31T16:06:38.074Z,11.00
2022-12-31T16:09:09.254Z,10.90
2022-12-31T16:11:42.027Z,10.90
2022-12-31T16:14:23.657Z,11.00
2022-12-31T16:17:02.227Z,11.00
2022-12-31T16:19:41.724Z,10.90
2022-12-31T16:22:37.830Z,10.90
2022-12-31T16:27:58.149Z,10.90
2022-12-31T16:30:30.825Z,11.00
2022-12-31T16:33:01.867Z,11.00
2022-12-31T16:35:34.608Z,11.10
2022-12-31T16:38:17.777Z,11.10
2022-12-31T16:41:03.862Z,11.10
2022-12-31T16:43:37.305Z,11.30
2022-12-31T16:46:36.729Z,11.20
2022-12-31T16:49:15.289Z,11.20
2022-12-31T16:51:42.380Z,11.10
2022-12-31T16:54:20.562Z,11.00
2022-12-31T16:56:47.897Z,11.10
2022-12-31T16:59:35.681Z,11.00
2022-12-31T17:02:07.270Z,10.90
2022-12-31T17:04:34.627Z,11.00
2022-12-31T17:07:27.397Z,11.00
2022-12-31T17:10:06.991Z,11.00
2022-12-31T17:13:17.526Z,11.00
2022-12-31T17:15:38.372Z,10.90
2022-12-31T17:18:07.442Z,10.90
2022-12-31T17:20:36.828Z,10.80
2022-12-31T17:23:09.131Z,10.60
2022-12-31T17:25:38.727Z,10.60
2022-12-31T17:28:07.321Z,10.60
2022-12-31T17:30:35.061Z,10.40
2022-12-31T17:33:05.071Z,10.40
2022-12-31T17:35:33.420Z,10.30
2022-12-31T17:38:24.225Z,10.30
2022-12-31T17:41:05.803Z,10.20
2022-12-31T17:43:39.164Z,10.20
2022-12-31T17:46:16.942Z,10.10
2022-12-31T17:48:47.670Z,10.10
2022-12-31T17:51:14.592Z,10.10
2022-12-31T17:53:42.244Z,10.00
2022-12-31T17:56:18.098Z,9.90
2022-12-31T17:58:52.037Z,9.80
2022-12-31T18:01:23.338Z,9.70
2022-12-31T18:03:50.434Z,9.70
2022-12-31T18:06:19.784Z,9.50
2022-12-31T18:08:47.297Z,9.40
2022-12-31T18:11:23.435Z,9.50
2022-12-31T18:13:51.163Z,9.50
2022-12-31T18:16:18.202Z,9.50
2022-12-31T18:18:45.543Z,9.50
2022-12-31T18:21:22.314Z,9.50
2022-12-31T18:23:49.819Z,9.40
2022-12-31T18:26:33.114Z,9.40
2022-12-31T18:29:17.622Z,9.40
2022-12-31T18:31:46.505Z,9.30
2022-12-31T18:34:18.084Z,9.40
2022-12-31T18:36:45.789Z,9.30
2022-12-31T18:39:12.943Z,9.40
2022-12-31T18:41:49.269Z,9.30
2022-12-31T18:44:19.519Z,9.40
2022-12-31T18:46:48.962Z,9.40
2022-12-31T18:49:15.955Z,9.60
2022-12-31T18:51:42.921Z,9.60
2022-12-31T18:54:11.446Z,9.90
2022-12-31T18:56:43.232Z,9.80
2022-12-31T18:59:13.777Z,9.90
2022-12-31T19:01:41.635Z,9.80
2022-12-31T19:04:18.714Z,9.80
2022-12-31T19:06:50.921Z,9.80
2022-12-31T19:09:44.114Z,9.80
2022-12-31T19:12:16.960Z,9.70
2022-12-31T19:14:50.798Z,9.70
2022-12-31T19:17:18.392Z,9.70
2022-12-31T19:19:47.524Z,9.80
2022-12-31T19:22:16.173Z,9.90
2022-12-31T19:24:43.724Z,10.00
2022-12-31T19:27:11.200Z,10.10
2022-12-31T19:29:38.117Z,10.10
2022-12-31T19:32:07.148Z,10.30
2022-12-31T19:34:36.196Z,10.30
2022-12-31T19:37:03.063Z,10.40
2022-12-31T19:39:30.175Z,10.40
2022-12-31T19:41:59.334Z,10.50
2022-12-31T19:44:26.874Z,10.50
2022-12-31T19:46:54.452Z,10.60
2022-12-31T19:49:23.576Z,10.70
2022-12-31T19:51:51.268Z,10.80
2022-12-31T19:54:20.736Z,10.80
2022-12-31T19:56:50.231Z,10.80
2022-12-31T19:59:17.089Z,10.70
2022-12-31T20:01:44.637Z,10.60
2022-12-31T20:04:11.727Z,10.50
2022-12-31T20:06:38.656Z,10.40
2022-12-31T20:09:08.325Z,10.30
2022-12-31T20:11:35.123Z,10.20
2022-12-31T20:14:02.171Z,10.00
2022-12-31T20:16:32.149Z,10.00
2022-12-31T20:19:01.971Z,9.80
2022-12-31T20:21:29.676Z,9.60
2022-12-31T20:23:56.888Z,9.40
2022-12-31T20:26:24.787Z,9.40
2022-12-31T20:28:54.436Z,9.30
2022-12-31T20:31:24.627Z,9.30
2022-12-31T20:33:54.116Z,9.20
2022-12-31T20:36:21.854Z,9.20
2022-12-31T20:38:49.258Z,9.10
2022-12-31T20:41:18.892Z,9.00
2022-12-31T20:43:48.302Z,9.10
2022-12-31T20:46:21.624Z,9.00
2022-12-31T20:48:49.043Z,9.00
2022-12-31T20:51:17.176Z,9.00
2022-12-31T20:53:52.105Z,9.00
2022-12-31T20:56:19.329Z,9.00
2022-12-31T20:58:46.204Z,9.00
2022-12-31T21:01:13.831Z,9.00
2022-12-31T21:06:30.826Z,9.30
2022-12-31T21:08:59.214Z,9.40
2022-12-31T21:11:46.048Z,9.50
2022-12-31T21:14:15.850Z,9.70
2022-12-31T21:16:42.845Z,9.80
2022-12-31T21:19:10.104Z,9.80
2022-12-31T21:21:37.310Z,9.80
2022-12-31T21:24:04.700Z,9.70
2022-12-31T21:26:31.793Z,9.70
2022-12-31T21:29:01.457Z,9.70
2022-12-31T21:31:28.584Z,9.90
2022-12-31T21:33:55.651Z,9.90
2022-12-31T21:36:22.532Z,10.00
2022-12-31T21:38:49.452Z,10.00
2022-12-31T21:41:35.541Z,10.20
2022-12-31T21:44:03.100Z,10.10
2022-12-31T21:46:30.576Z,10.10
2022-12-31T21:48:59.928Z,10.00
2022-12-31T21:51:27.783Z,10.00
2022-12-31T21:53:54.769Z,10.00
2022-12-31T21:56:22.558Z,10.00
2022-12-31T21:59:13.913Z,10.10
2022-12-31T22:01:59.562Z,10.00
2022-12-31T22:07:16.680Z,9.90
2022-12-31T22:09:43.656Z,9.80
2022-12-31T22:12:10.811Z,9.80
2022-12-31T22:14:37.784Z,9.80
2022-12-31T22:17:04.862Z,9.80
2022-12-31T22:19:33.715Z,9.60
2022-12-31T22:22:13.563Z,9.60
2022-12-31T22:24:40.333Z,9.60
2022-12-31T22:27:28.884Z,9.40
2022-12-31T22:29:54.829Z,9.30
2022-12-31T22:32:21.731Z,9.30
2022-12-31T22:34:48.761Z,9.40
2022-12-31T22:37:46.495Z,9.10
2022-12-31T22:40:02.867Z,9.40
2022-12-31T22:42:29.658Z,9.40
2022-12-31T22:44:56.544Z,9.40
2022-12-31T22:47:23.435Z,9.40
2022-12-31T22:49:50.867Z,9.30
2022-12-31T22:52:17.753Z,9.30
2022-12-31T22:54:44.936Z,9.20
2022-12-31T22:57:17.803Z,9.30
2022-12-31T22:59:46.813Z,9.10
2022-12-31T23:02:16.850Z,9.20
2022-12-31T23:04:44.174Z,9.10
2022-12-31T23:07:11.293Z,9.00
2022-12-31T23:09:56.969Z,8.70
2022-12-31T23:12:24.686Z,8.70
2022-12-31T23:15:10.608Z,8.60
2022-12-31T23:17:59.814Z,8.50
2022-12-31T23:20:45.229Z,8.40
2022-12-31T23:23:16.157Z,8.30
2022-12-31T23:25:51.007Z,8.20
2022-12-31T23:28:21.440Z,8.20
2022-12-31T23:30:51.422Z,8.20
2022-12-31T23:33:23.098Z,8.10
2022-12-31T23:36:03.224Z,8.10
2022-12-31T23:38:30.131Z,8.00
2022-12-31T23:40:56.930Z,8.00
2022-12-31T23:43:23.795Z,8.00
2022-12-31T23:45:52.092Z,8.00
2022-12-31T23:48:19.162Z,8.00
2022-12-31T23:50:53.603Z,8.00
2022-12-31T23:53:22.107Z,8.10
2022-12-31T23:55:48.904Z,8.10
2022-12-31T23:58:16.566Z,8.10
